KMWM/MWM METAR and TAF weather

Enter ICAO airport designator
Station Type Date Time Source
KMWM METAR 2019/05/25 14:56 UTC NOAA

KMWM 251456Z AUTO 27017G20KT 10SM CLR 16/08 A2989 RMK AO2


Station Type Date Time Source
KMWM Decoded METAR 2019/05/25 14:56 UTC NOAA

Windom, Windom Municipal Airport, MN, United States (KMWM) 43-54-48N 095-06-34W
May 25, 2019 - 10:56 AM EDT / 2019.05.25 1456 UTC
Wind: from the W (270 degrees) at 20 MPH (17 KT) gusting to 23 MPH (20 KT):0
Visibility: 10 mile(s):0
Sky conditions: clear
Temperature: 60 F (16 C)
Dew Point: 46 F (8 C)
Relative Humidity: 58%
Pressure (altimeter): 29.89 in. Hg (1012 hPa)
ob: KMWM 251456Z AUTO 27017G20KT 10SM CLR 16/08 A2989 RMK AO2
cycle: 15

Station Type Date Time Source
KMWM TAF UTC NOAA

Error!

Example: see airport list